Time;durP1;ratioP1;P1;durP2;ratioP2;P2;SDS_P1;SDS_P2;PMS_P1;PMS_P2;Temp;Humidity;BMP_temperature;BMP_pressure;BME280_temperature;BME280_humidity;BME280_pressure;Samples;Min_cycle;Max_cycle;Signal;HPM_P1;HPM_P2
2021/07/08 06:42:57;;;;;;;11.35;6.50;;;;;;;15.41;86.03;101062.06;1455032;26;20130;-79
2021/07/08 06:45:23;;;;;;;11.25;6.30;;;;;;;15.47;86.13;101067.56;4943623;28;20141;-76
2021/07/08 06:47:50;;;;;;;13.98;6.63;;;;;;;15.51;86.25;101063.81;4943243;28;20042;-81
2021/07/08 06:50:19;;;;;;;10.25;6.63;;;;;;;15.57;86.00;101067.31;4928299;28;20043;-77
2021/07/08 06:52:45;;;;;;;10.35;6.05;;;;;;;15.61;85.57;101068.38;4959554;28;20121;-76
2021/07/08 06:55:11;;;;;;;11.18;6.28;;;;;;;15.67;84.86;101072.69;4931741;28;20040;-77
2021/07/08 06:57:50;;;;;;;10.02;6.50;;;;;;;15.72;84.74;101074.59;4928706;29;20435;-76
2021/07/08 07:00:18;;;;;;;9.07;6.45;;;;;;;15.77;84.93;101083.72;4961490;28;20090;-75
2021/07/08 07:02:44;;;;;;;11.85;6.38;;;;;;;15.82;84.46;101077.16;4969072;28;20554;-75
2021/07/08 07:05:10;;;;;;;12.10;6.80;;;;;;;15.85;84.45;101080.16;4945303;28;20043;-75
2021/07/08 07:07:35;;;;;;;11.55;6.82;;;;;;;15.90;84.54;101081.16;4931910;28;20097;-75
2021/07/08 07:10:01;;;;;;;9.77;5.88;;;;;;;15.96;84.46;101079.91;4953686;28;20042;-76
2021/07/08 07:12:26;;;;;;;10.27;7.03;;;;;;;16.00;85.20;101089.34;4947023;28;20039;-75
2021/07/08 07:14:52;;;;;;;8.88;6.20;;;;;;;16.05;84.49;101083.63;4980191;28;20038;-76
2021/07/08 07:17:18;;;;;;;9.88;6.10;;;;;;;16.10;83.94;101086.28;4951068;28;20386;-75
2021/07/08 07:19:43;;;;;;;13.15;8.07;;;;;;;16.16;84.18;101085.03;4944885;28;20041;-75
2021/07/08 07:22:09;;;;;;;9.00;6.30;;;;;;;16.23;83.95;101085.41;4945936;28;20043;-75
2021/07/08 07:24:34;;;;;;;10.40;5.97;;;;;;;16.30;84.09;101085.78;4961780;28;20042;-76
2021/07/08 07:27:00;;;;;;;9.52;6.22;;;;;;;16.39;83.45;101082.22;4962249;28;20047;-76
2021/07/08 07:29:25;;;;;;;11.10;6.63;;;;;;;16.47;84.29;101087.06;4964861;28;20039;-75
2021/07/08 07:31:51;;;;;;;9.60;6.18;;;;;;;16.57;83.56;101088.75;4946122;28;20138;-75
2021/07/08 07:34:16;;;;;;;11.13;6.38;;;;;;;16.66;83.73;101093.28;4944394;28;20086;-76
2021/07/08 07:36:42;;;;;;;10.23;6.03;;;;;;;16.74;83.33;101098.13;4962342;28;20039;-76
2021/07/08 07:39:07;;;;;;;8.65;5.68;;;;;;;16.82;83.31;101093.72;4978055;28;20053;-75
2021/07/08 07:41:34;;;;;;;11.30;6.35;;;;;;;16.93;83.51;101097.06;4945584;28;20039;-75
2021/07/08 07:44:00;;;;;;;10.38;6.50;;;;;;;17.00;83.39;101103.06;4956212;29;20059;-75
2021/07/08 07:46:25;;;;;;;11.10;6.75;;;;;;;17.06;83.96;101098.13;4958579;28;20094;-75
2021/07/08 07:48:51;;;;;;;8.95;6.10;;;;;;;17.11;83.31;101096.00;4959262;29;20039;-75
2021/07/08 07:51:16;;;;;;;10.80;6.57;;;;;;;17.19;83.60;101100.81;4954405;28;20046;-75
2021/07/08 07:53:42;;;;;;;11.55;6.28;;;;;;;17.27;83.29;101103.97;4957926;29;20044;-75
2021/07/08 07:56:08;;;;;;;14.27;7.38;;;;;;;17.31;83.34;101102.19;4958892;28;20040;-76
2021/07/08 07:58:33;;;;;;;10.73;6.30;;;;;;;17.38;83.16;101097.75;4958306;28;20439;-76
2021/07/08 08:01:00;;;;;;;10.07;6.28;;;;;;;17.46;83.00;101092.47;4956254;28;20043;-76
2021/07/08 08:03:26;;;;;;;9.93;6.50;;;;;;;17.53;83.00;101093.66;4926508;29;20071;-76
2021/07/08 08:08:43;;;;;;;9.23;5.88;;;;;;;17.67;82.57;101098.31;4946028;28;20047;-76
2021/07/08 08:11:09;;;;;;;10.48;6.15;;;;;;;17.79;82.16;101098.53;4953601;28;20436;-76
2021/07/08 08:13:35;;;;;;;9.98;6.07;;;;;;;17.89;82.81;101101.03;4941744;29;20043;-76
2021/07/08 08:16:02;;;;;;;7.57;5.78;;;;;;;17.97;82.03;101097.38;4943590;29;20066;-76
2021/07/08 08:18:28;;;;;;;8.55;6.13;;;;;;;18.08;82.07;101098.72;4956871;28;20110;-76
2021/07/08 08:20:54;;;;;;;10.88;6.82;;;;;;;18.17;82.44;101104.31;4957318;28;20042;-76
2021/07/08 08:23:19;;;;;;;10.50;5.80;;;;;;;18.27;82.01;101105.97;4956298;29;20491;-76
2021/07/08 08:25:45;;;;;;;7.00;5.53;;;;;;;18.36;81.46;101097.50;4954236;28;20036;-76
2021/07/08 08:28:11;;;;;;;10.98;5.97;;;;;;;18.44;81.83;101100.34;4962210;28;20039;-76
2021/07/08 08:30:36;;;;;;;10.52;6.18;;;;;;;18.53;81.20;101108.75;4957314;28;20044;-76
2021/07/08 08:33:02;;;;;;;10.38;6.00;;;;;;;18.62;80.24;101106.75;4955997;28;20148;-75
2021/07/08 08:35:28;;;;;;;9.38;5.32;;;;;;;18.71;79.65;101104.75;4943780;29;20114;-75
2021/07/08 08:37:53;;;;;;;7.25;6.00;;;;;;;18.79;79.85;101111.53;4942354;29;20039;-75
2021/07/08 08:40:21;;;;;;;9.07;6.00;;;;;;;18.87;80.24;101118.31;4959690;28;20419;-75
2021/07/08 08:42:47;;;;;;;7.47;4.60;;;;;;;18.99;79.76;101112.81;4959396;28;20058;-75
2021/07/08 08:45:17;;;;;;;10.10;5.18;;;;;;;19.09;79.53;101114.44;4976956;28;20098;-75
2021/07/08 08:48:03;;;;;;;9.13;4.43;;;;;;;19.24;78.29;101118.66;4951850;28;20037;-75
2021/07/08 08:50:34;;;;;;;5.97;4.97;;;;;;;19.37;78.34;101117.63;4960815;28;20039;-76
2021/07/08 08:52:59;;;;;;;8.10;5.18;;;;;;;19.46;78.83;101117.56;4958704;28;20077;-76
2021/07/08 08:55:25;;;;;;;7.63;5.03;;;;;;;19.56;78.28;101128.47;4979912;28;20067;-76
2021/07/08 08:57:51;;;;;;;6.72;4.88;;;;;;;19.63;78.25;101129.56;4944082;28;20494;-75
2021/07/08 09:00:25;;;;;;;8.38;5.57;;;;;;;19.71;78.17;101130.72;4976778;28;20043;-75
2021/07/08 09:03:11;;;;;;;11.05;4.82;;;;;;;19.76;77.79;101130.50;4966307;28;20039;-71
2021/07/08 09:05:37;;;;;;;10.77;6.13;;;;;;;19.78;77.63;101132.97;4973797;28;20380;-71
2021/07/08 09:08:23;;;;;;;7.20;5.32;;;;;;;19.85;77.72;101136.91;4976443;28;20118;-72
2021/07/08 09:11:06;;;;;;;7.75;5.35;;;;;;;19.86;77.99;101137.72;4972835;28;20039;-71
2021/07/08 09:13:41;;;;;;;11.55;5.35;;;;;;;19.89;77.33;101133.41;4973729;28;20043;-69
2021/07/08 09:16:14;;;;;;;7.57;5.30;;;;;;;19.91;77.66;101139.53;4970551;28;20050;-72
2021/07/08 09:18:40;;;;;;;10.65;5.47;;;;;;;19.91;77.48;101133.91;4976687;28;20047;-72
2021/07/08 09:21:19;;;;;;;12.10;5.30;;;;;;;19.91;77.53;101146.00;4936852;28;20070;-71
2021/07/08 09:24:07;;;;;;;8.05;5.03;;;;;;;19.92;77.63;101141.16;4969888;28;20110;-71
2021/07/08 09:26:33;;;;;;;8.70;5.13;;;;;;;19.93;78.12;101137.22;4974564;28;20050;-71
2021/07/08 09:29:11;;;;;;;10.18;5.40;;;;;;;19.93;77.77;101140.03;4970813;28;20094;-71
2021/07/08 09:31:37;;;;;;;10.30;5.30;;;;;;;19.98;77.71;101139.81;4940668;28;20065;-71
2021/07/08 09:34:17;;;;;;;7.82;5.50;;;;;;;19.99;77.51;101141.47;4938124;28;20042;-71
2021/07/08 09:36:42;;;;;;;7.03;4.78;;;;;;;20.07;77.58;101137.75;4955090;28;20050;-71
2021/07/08 09:39:10;;;;;;;8.52;5.25;;;;;;;20.13;77.68;101135.56;4943543;28;20121;-71
2021/07/08 09:41:44;;;;;;;9.13;5.20;;;;;;;20.19;77.91;101140.63;4935103;28;20046;-71
2021/07/08 09:44:24;;;;;;;8.40;5.65;;;;;;;20.27;77.35;101141.75;4935900;28;20058;-72
2021/07/08 09:46:57;;;;;;;8.65;5.40;;;;;;;20.37;76.93;101140.50;4925507;29;20479;-78
2021/07/08 09:49:32;;;;;;;;;;;;;;;20.42;75.64;101138.31;4919150;29;20043;-79
2021/07/08 09:51:58;;;;;;;8.68;5.78;;;;;;;20.51;75.67;101146.69;4917182;29;19919;-76
2021/07/08 09:57:45;;;;;;;9.23;5.72;;;;;;;20.72;74.96;101147.47;4923786;29;20035;-78
2021/07/08 10:00:20;;;;;;;9.48;6.00;;;;;;;20.83;74.94;101152.69;4919716;29;20502;-78
2021/07/08 10:02:49;;;;;;;8.18;5.93;;;;;;;20.95;74.58;101147.09;4955209;28;20087;-78
2021/07/08 10:05:15;;;;;;;11.13;6.18;;;;;;;21.07;74.00;101152.78;4933714;29;20032;-77
2021/07/08 10:07:41;;;;;;;9.77;5.68;;;;;;;21.20;73.21;101151.63;4932833;29;20415;-74
2021/07/08 10:10:06;;;;;;;7.82;6.15;;;;;;;21.33;73.86;101146.78;4955304;28;20063;-74
2021/07/08 10:12:32;;;;;;;9.80;6.45;;;;;;;21.51;72.82;101149.44;4952878;28;20510;-74
2021/07/08 10:15:01;;;;;;;8.18;6.28;;;;;;;21.69;73.06;101156.50;4956066;28;20403;-75
2021/07/08 10:17:29;;;;;;;8.38;5.85;;;;;;;21.87;72.30;101154.25;4939711;29;20534;-75
2021/07/08 10:19:54;;;;;;;8.23;5.70;;;;;;;22.04;72.36;101153.16;4938204;29;20083;-75
2021/07/08 10:22:20;;;;;;;11.80;6.70;;;;;;;22.25;71.13;101153.00;4962197;28;20054;-74
2021/07/08 10:24:46;;;;;;;8.48;5.90;;;;;;;22.43;70.33;101154.38;4970457;28;20035;-75
2021/07/08 10:27:11;;;;;;;7.55;5.28;;;;;;;22.62;69.69;101155.69;4921883;29;20095;-75
2021/07/08 10:29:38;;;;;;;10.38;5.85;;;;;;;22.82;68.97;101151.03;4941568;29;20047;-75
2021/07/08 10:32:04;;;;;;;10.18;5.65;;;;;;;22.99;68.70;101144.22;4924934;28;20043;-75
2021/07/08 10:34:32;;;;;;;7.07;5.28;;;;;;;23.18;67.48;101147.19;4922718;29;20074;-75
2021/07/08 10:36:57;;;;;;;8.82;5.13;;;;;;;23.35;66.74;101151.66;4931624;28;20061;-75
2021/07/08 10:39:23;;;;;;;8.45;5.57;;;;;;;23.51;66.69;101155.28;4937806;29;20039;-74
2021/07/08 10:41:56;;;;;;;7.43;5.03;;;;;;;23.68;66.19;101147.59;4940237;28;20043;-75
2021/07/08 10:44:33;;;;;;;7.25;5.60;;;;;;;23.88;65.58;101154.19;4924733;29;20063;-75
2021/07/08 10:47:00;;;;;;;11.38;6.25;;;;;;;24.01;65.05;101145.16;4952021;28;20039;-75
2021/07/08 10:57:00;;;;;;;6.45;5.05;;;;;;;24.60;62.90;101150.91;4889983;29;20104;-76
2021/07/08 10:59:39;;;;;;;7.95;4.78;;;;;;;24.72;62.92;101145.91;4896563;29;20060;-76
2021/07/08 11:02:05;;;;;;;6.75;4.25;;;;;;;24.84;62.76;101149.78;4939162;28;20051;-75
2021/07/08 11:04:43;;;;;;;6.60;4.40;;;;;;;24.94;62.56;101152.81;4925088;29;20379;-75
2021/07/08 11:07:13;;;;;;;5.70;4.78;;;;;;;25.06;62.31;101148.97;4952764;29;20035;-75
2021/07/08 11:09:55;;;;;;;6.45;4.90;;;;;;;25.17;62.06;101150.03;4922339;29;20035;-75
2021/07/08 11:12:31;;;;;;;6.05;4.68;;;;;;;25.28;61.58;101152.25;4939799;29;20035;-71
2021/07/08 11:14:56;;;;;;;5.95;4.45;;;;;;;25.42;59.52;101141.94;4921556;29;20111;-71
2021/07/08 11:17:22;;;;;;;7.72;5.00;;;;;;;25.56;59.50;101143.38;4948885;28;20118;-69
2021/07/08 11:19:48;;;;;;;6.78;4.38;;;;;;;25.67;60.07;101143.53;4951530;29;20047;-71
2021/07/08 11:22:28;;;;;;;7.22;4.30;;;;;;;25.80;59.75;101142.13;4934152;29;20369;-70
2021/07/08 11:24:54;;;;;;;6.50;4.30;;;;;;;25.99;59.41;101147.75;4933122;29;20385;-70
2021/07/08 11:27:23;;;;;;;6.00;4.40;;;;;;;26.20;59.99;101143.53;4931163;29;20039;-72
2021/07/08 11:29:52;;;;;;;5.80;4.50;;;;;;;26.43;59.51;101135.69;4950271;28;20043;-71
2021/07/08 11:32:31;;;;;;;5.68;3.83;;;;;;;26.60;58.42;101133.50;4952715;28;20047;-70
2021/07/08 11:35:04;;;;;;;8.88;4.25;;;;;;;26.79;56.84;101130.47;4947193;28;20118;-70
2021/07/08 11:37:37;;;;;;;5.82;4.10;;;;;;;26.95;55.77;101139.59;4946842;28;20027;-69
2021/07/08 11:40:02;;;;;;;;;;;;;;;27.03;54.93;101123.38;4940060;29;20047;-71
2021/07/08 11:42:32;;;;;;;7.18;4.25;;;;;;;27.05;54.12;101125.81;4941861;28;19915;-72
2021/07/08 11:45:11;;;;;;;7.07;4.03;;;;;;;27.08;55.26;101119.34;4941559;28;20039;-71
2021/07/08 11:47:43;;;;;;;5.03;3.80;;;;;;;27.13;55.69;101124.69;4927319;28;20046;-71
2021/07/08 11:50:15;;;;;;;6.68;3.95;;;;;;;27.17;53.78;101131.28;4948967;28;20551;-70
2021/07/08 11:52:40;;;;;;;7.30;3.90;;;;;;;27.26;54.78;101136.66;4977646;28;20227;-71
2021/07/08 11:55:07;;;;;;;6.30;3.67;;;;;;;27.30;55.16;101126.94;4943063;28;20504;-71
2021/07/08 11:57:52;;;;;;;6.95;4.30;;;;;;;27.22;55.15;101124.38;4947395;28;20041;-68
2021/07/08 12:00:40;;;;;;;6.88;3.83;;;;;;;27.28;55.12;101117.13;4942780;28;20102;-71
2021/07/08 12:03:27;;;;;;;6.25;3.40;;;;;;;27.45;54.75;101113.59;4959692;28;20047;-71
2021/07/08 12:05:58;;;;;;;5.38;3.60;;;;;;;27.63;53.76;101122.28;4946301;28;20057;-72
2021/07/08 12:08:25;;;;;;;5.57;3.50;;;;;;;27.88;52.80;101113.94;4944019;28;20035;-72
2021/07/08 12:10:56;;;;;;;5.18;3.65;;;;;;;28.06;51.57;101114.84;4931429;28;20042;-71
2021/07/08 12:13:21;;;;;;;6.72;3.88;;;;;;;28.15;52.22;101110.81;4945250;28;20050;-72
2021/07/08 12:15:47;;;;;;;6.38;3.60;;;;;;;28.15;52.68;101111.63;4930057;28;20042;-72
2021/07/08 12:18:12;;;;;;;5.05;3.35;;;;;;;28.11;52.97;101116.53;4947288;28;20568;-72
2021/07/08 12:20:47;;;;;;;7.00;3.97;;;;;;;28.05;52.26;101106.69;4942871;28;20035;-71
2021/07/08 12:23:12;;;;;;;7.82;3.65;;;;;;;28.05;52.67;101103.81;4944279;28;20047;-71
2021/07/08 12:25:38;;;;;;;5.28;3.78;;;;;;;28.03;51.46;101109.94;4927836;29;20035;-71
2021/07/08 12:28:04;;;;;;;7.03;3.95;;;;;;;28.06;50.58;101103.44;4938350;29;20496;-72
2021/07/08 12:30:30;;;;;;;5.03;3.30;;;;;;;28.11;51.25;101107.13;4932398;28;20047;-71
2021/07/08 12:33:12;;;;;;;4.72;3.08;;;;;;;28.21;51.29;101106.34;4963224;28;20039;-74
2021/07/08 12:35:39;;;;;;;4.75;3.60;;;;;;;28.38;49.74;101107.66;4926987;28;20031;-74
2021/07/08 12:38:05;;;;;;;4.72;3.10;;;;;;;28.58;47.00;101102.44;4920072;28;20551;-74
2021/07/08 12:40:31;;;;;;;4.32;2.90;;;;;;;28.76;47.49;101100.47;4927107;29;20043;-75
2021/07/08 12:42:58;;;;;;;3.40;2.85;;;;;;;29.01;47.94;101096.81;4940674;28;20059;-73
2021/07/08 12:45:24;;;;;;;5.93;3.00;;;;;;;29.18;46.60;101094.00;4962535;28;20121;-72
2021/07/08 12:47:53;;;;;;;3.05;2.55;;;;;;;29.36;47.00;101087.44;4959004;28;20078;-73
2021/07/08 12:50:23;;;;;;;5.43;2.78;;;;;;;29.50;43.56;101090.28;4920401;28;20039;-72
2021/07/08 12:52:49;;;;;;;5.47;2.90;;;;;;;29.57;45.00;101093.16;4947225;28;20035;-73
2021/07/08 12:55:33;;;;;;;5.45;2.78;;;;;;;29.65;46.11;101098.91;4924100;28;20046;-73
2021/07/08 12:58:06;;;;;;;4.30;2.90;;;;;;;29.73;44.28;101104.22;4957870;28;20093;-73
2021/07/08 13:00:33;;;;;;;3.83;2.60;;;;;;;29.75;44.90;101101.75;4923452;28;20565;-73
2021/07/08 13:02:58;;;;;;;4.40;2.70;;;;;;;29.76;44.72;101094.81;4940563;28;20046;-73
2021/07/08 13:05:35;;;;;;;3.45;2.55;;;;;;;29.75;45.65;101096.00;4927078;28;20049;-73
2021/07/08 13:08:00;;;;;;;4.03;2.63;;;;;;;29.79;46.03;101096.03;4943857;28;20565;-72
2021/07/08 13:10:33;;;;;;;6.88;3.13;;;;;;;29.63;46.11;101090.72;4941214;28;20043;-73
2021/07/08 13:12:59;;;;;;;4.80;2.63;;;;;;;29.42;44.63;101099.28;4957601;28;20402;-73
2021/07/08 13:15:25;;;;;;;6.00;3.15;;;;;;;29.31;46.95;101093.56;4942961;28;20047;-73
2021/07/08 13:18:04;;;;;;;6.55;3.15;;;;;;;29.11;47.94;101104.59;4946324;28;20042;-73
2021/07/08 13:20:30;;;;;;;4.45;2.63;;;;;;;28.95;48.44;101114.38;4938566;28;20514;-73
2021/07/08 13:22:56;;;;;;;8.18;3.28;;;;;;;28.78;48.74;101105.75;4938396;28;20110;-73
2021/07/08 13:25:22;;;;;;;7.57;3.10;;;;;;;28.63;48.43;101120.00;4946303;28;20062;-72
2021/07/08 13:27:50;;;;;;;8.02;3.38;;;;;;;28.47;49.16;101116.69;4955845;28;20054;-73
2021/07/08 13:30:32;;;;;;;10.18;4.10;;;;;;;28.29;49.78;101120.25;4938966;28;20535;-72
2021/07/08 13:33:05;;;;;;;4.40;3.00;;;;;;;28.10;48.25;101117.72;4928971;28;20046;-72
2021/07/08 13:35:49;;;;;;;6.10;3.10;;;;;;;28.05;47.29;101120.94;4943003;28;20050;-73
2021/07/08 13:38:26;;;;;;;4.20;2.70;;;;;;;28.01;47.88;101115.22;4951173;28;20043;-73
2021/07/08 13:40:58;;;;;;;6.95;2.75;;;;;;;27.96;49.10;101120.50;4944488;28;20065;-72
2021/07/08 13:43:44;;;;;;;;;;;;;;;27.96;49.50;101117.66;4944440;28;20061;-73
2021/07/08 13:46:17;;;;;;;3.35;2.67;;;;;;;27.94;48.32;101117.22;4948370;28;20376;-73
2021/07/08 13:48:42;;;;;;;;;;;;;;;27.93;48.47;101124.97;4940082;28;20512;-72
2021/07/08 13:51:08;;;;;;;4.93;2.83;;;;;;;27.97;48.47;101124.97;4959852;28;19914;-73
2021/07/08 13:53:34;;;;;;;4.95;2.55;;;;;;;27.93;46.67;101121.31;4930163;28;20043;-73
2021/07/08 13:56:00;;;;;;;13.18;7.82;;;;;;;27.95;48.89;101127.44;4938561;28;20041;-72
2021/07/08 13:58:28;;;;;;;5.47;3.50;;;;;;;27.95;50.08;101133.97;4955998;28;20043;-73
2021/07/08 14:00:55;;;;;;;4.65;3.33;;;;;;;28.00;50.37;101141.31;4957864;28;20094;-72
2021/07/08 14:03:20;;;;;;;6.95;3.40;;;;;;;27.94;50.25;101135.16;4943008;28;20045;-72
2021/07/08 14:05:46;;;;;;;5.50;3.33;;;;;;;27.94;50.55;101137.19;4939824;28;20043;-72
2021/07/08 14:08:12;;;;;;;3.50;2.60;;;;;;;27.93;50.61;101130.69;4939946;28;20043;-72
2021/07/08 14:10:38;;;;;;;6.00;2.80;;;;;;;27.92;49.67;101133.94;4944382;28;20036;-72
2021/07/08 14:13:04;;;;;;;4.13;2.47;;;;;;;27.85;49.01;101138.38;4942729;28;20047;-72
2021/07/08 14:15:29;;;;;;;3.97;2.45;;;;;;;27.84;50.05;101139.59;4940306;28;20179;-73
2021/07/08 14:17:56;;;;;;;13.18;3.05;;;;;;;27.78;50.64;101137.50;4959188;28;20406;-72
2021/07/08 14:20:22;;;;;;;7.28;3.22;;;;;;;27.72;51.07;101134.19;4927064;28;20049;-72
2021/07/08 14:22:47;;;;;;;17.60;4.00;;;;;;;27.62;51.12;101138.59;4938390;28;20043;-72
2021/07/08 14:25:13;;;;;;;11.88;3.40;;;;;;;27.53;51.50;101140.97;4908090;28;20035;-72
2021/07/08 14:27:38;;;;;;;6.88;3.42;;;;;;;27.44;51.92;101136.81;4959047;28;20047;-72
2021/07/08 14:30:05;;;;;;;12.00;3.22;;;;;;;27.29;52.21;101135.88;4943439;28;20041;-72
2021/07/08 14:32:30;;;;;;;11.32;3.35;;;;;;;27.09;51.82;101124.66;4954193;28;20077;-72
2021/07/08 14:34:56;;;;;;;6.18;3.38;;;;;;;27.01;52.15;101136.38;4957163;28;20043;-72
2021/07/08 14:37:21;;;;;;;12.80;3.72;;;;;;;26.87;52.73;101137.06;4925517;28;20081;-72
2021/07/08 14:39:47;;;;;;;3.63;2.72;;;;;;;26.78;52.64;101133.72;4925992;28;20106;-72
2021/07/08 14:42:19;;;;;;;11.20;3.17;;;;;;;26.69;53.68;101136.84;4939155;28;20038;-73
2021/07/08 14:44:48;;;;;;;12.13;3.33;;;;;;;26.58;53.92;101142.44;4940056;28;20070;-72
2021/07/08 14:47:13;;;;;;;11.40;3.08;;;;;;;26.43;53.77;101138.56;4942596;28;20043;-74
2021/07/08 14:49:39;;;;;;;8.35;3.25;;;;;;;26.29;54.16;101147.72;4952689;28;20061;-73
2021/07/08 14:52:04;;;;;;;5.90;3.17;;;;;;;26.17;54.71;101152.84;4941772;28;20038;-73
2021/07/08 14:54:30;;;;;;;7.50;3.05;;;;;;;26.01;54.47;101147.34;4940887;28;20038;-73
2021/07/08 14:56:56;;;;;;;7.88;3.33;;;;;;;25.85;55.20;101147.50;4924691;28;20376;-72
2021/07/08 14:59:22;;;;;;;7.32;3.35;;;;;;;25.64;54.20;101150.81;4913653;28;20055;-73
2021/07/08 15:01:47;;;;;;;4.60;3.00;;;;;;;25.58;54.53;101147.47;4951373;28;20071;-73
2021/07/08 15:04:13;;;;;;;9.50;3.63;;;;;;;25.47;54.63;101149.31;4925078;28;20403;-73
2021/07/08 15:06:38;;;;;;;6.47;3.33;;;;;;;25.35;56.36;101158.03;4945150;28;20035;-73
2021/07/08 15:09:04;;;;;;;7.80;3.60;;;;;;;25.16;57.23;101154.06;4940865;28;20038;-73
2021/07/08 15:11:29;;;;;;;8.93;3.50;;;;;;;25.10;56.51;101149.03;4934883;28;20551;-74
2021/07/08 15:13:55;;;;;;;6.05;3.53;;;;;;;24.97;56.11;101152.06;4948386;28;20041;-73
2021/07/08 15:16:20;;;;;;;5.57;3.58;;;;;;;24.93;55.94;101159.72;4945243;28;21335;-72
2021/07/08 15:18:47;;;;;;;6.32;3.63;;;;;;;24.85;56.02;101154.25;4930566;28;20039;-82
2021/07/08 16:12:29;;;;;;;7.75;3.70;;;;;;;24.59;58.57;101152.13;5721748;23;20071;-74
2021/07/08 16:14:55;;;;;;;5.00;4.05;;;;;;;24.63;58.93;101151.00;4921942;29;20054;-72
2021/07/08 16:17:21;;;;;;;5.47;3.95;;;;;;;24.66;58.87;101147.41;4924808;29;20044;-73
2021/07/08 16:19:46;;;;;;;9.63;4.30;;;;;;;24.74;58.71;101152.03;4902431;29;20043;-73
2021/07/08 16:22:12;;;;;;;7.72;3.80;;;;;;;24.77;58.14;101147.63;4913132;29;20488;-73
2021/07/08 16:24:37;;;;;;;5.28;3.75;;;;;;;24.81;58.36;101151.34;4895024;29;20040;-73
2021/07/08 16:27:04;;;;;;;7.53;4.22;;;;;;;24.71;57.84;101151.94;4893142;29;20040;-72
2021/07/08 16:29:29;;;;;;;8.00;3.97;;;;;;;24.77;57.62;101149.63;4909072;29;20039;-73
2021/07/08 16:31:55;;;;;;;6.10;3.65;;;;;;;24.77;57.85;101149.63;4893210;29;20036;-73
2021/07/08 16:34:20;;;;;;;6.45;3.55;;;;;;;24.73;57.35;101158.91;4891015;29;20044;-73
2021/07/08 16:36:46;;;;;;;4.60;3.50;;;;;;;24.70;57.04;101153.16;4897288;29;20024;-73
2021/07/08 16:39:12;;;;;;;8.77;5.07;;;;;;;24.25;57.91;101160.28;4924849;29;20044;-72
2021/07/08 16:41:37;;;;;;;7.32;4.55;;;;;;;24.03;58.62;101161.81;4939037;29;20040;-73
2021/07/08 16:44:03;;;;;;;8.13;4.50;;;;;;;23.90;59.59;101160.28;4925135;29;20700;-73
2021/07/08 16:46:30;;;;;;;7.70;5.15;;;;;;;23.74;59.94;101160.34;4935377;29;20525;-73
2021/07/08 16:48:55;;;;;;;9.30;4.97;;;;;;;23.55;60.63;101161.06;4941719;29;20436;-72
2021/07/08 16:51:21;;;;;;;8.75;4.72;;;;;;;23.59;60.71;101165.63;4907094;29;20098;-73
2021/07/08 16:53:46;;;;;;;11.10;5.60;;;;;;;23.28;61.78;101162.78;4920052;29;20051;-73
2021/07/08 16:56:12;;;;;;;7.78;5.10;;;;;;;23.06;62.39;101155.72;4889840;29;20031;-73
2021/07/08 16:58:37;;;;;;;9.75;5.40;;;;;;;22.87;63.24;101156.41;4919056;29;20571;-74
2021/07/08 17:01:04;;;;;;;11.05;5.32;;;;;;;22.77;64.09;101156.94;4880303;29;20125;-73
2021/07/08 17:03:37;;;;;;;8.98;4.88;;;;;;;22.71;63.82;101159.22;4930874;29;20580;-73
2021/07/08 17:06:03;;;;;;;7.70;4.85;;;;;;;22.79;63.55;101161.06;4906946;29;20044;-73
2021/07/08 17:08:29;;;;;;;9.25;5.15;;;;;;;22.77;63.57;101154.94;4923925;29;20510;-74
2021/07/08 17:10:54;;;;;;;7.90;5.07;;;;;;;22.64;63.34;101159.81;4911975;29;20066;-72
2021/07/08 17:13:20;;;;;;;9.57;5.70;;;;;;;22.60;63.81;101160.91;4890421;29;20083;-71
2021/07/08 17:15:46;;;;;;;10.27;5.22;;;;;;;22.71;63.35;101151.53;4895846;29;20043;-73
2021/07/08 17:18:11;;;;;;;10.18;5.45;;;;;;;22.72;63.24;101153.19;4924247;29;20043;-72
2021/07/08 17:20:37;;;;;;;10.90;5.22;;;;;;;22.55;64.22;101158.34;4938027;29;20047;-71
2021/07/08 17:23:03;;;;;;;9.35;5.90;;;;;;;22.34;64.85;101167.00;4898575;29;20439;-71
2021/07/08 17:25:28;;;;;;;10.00;5.57;;;;;;;22.48;64.40;101162.63;4900833;29;20043;-72
2021/07/08 17:27:54;;;;;;;9.45;5.78;;;;;;;;;;4909351;29;20056;-72
2021/07/08 17:30:19;;;;;;;9.93;5.55;;;;;;;22.46;64.53;101155.66;4945203;29;20512;-73
2021/07/08 17:32:45;;;;;;;7.88;5.05;;;;;;;22.54;63.98;101151.84;4913837;29;20369;-73
2021/07/08 17:35:11;;;;;;;11.30;7.28;;;;;;;22.57;63.80;101155.97;4929937;29;20104;-73
2021/07/08 17:37:36;;;;;;;8.93;5.70;;;;;;;22.48;64.04;101153.28;4895207;29;20067;-73
2021/07/08 17:40:04;;;;;;;8.80;5.22;;;;;;;22.38;64.56;101153.81;4897062;29;20043;-73
2021/07/08 17:42:30;;;;;;;10.88;5.90;;;;;;;22.40;64.82;101149.44;4931246;29;20046;-74
2021/07/08 17:44:56;;;;;;;9.95;5.70;;;;;;;22.22;65.17;101160.19;4895354;29;20047;-74
2021/07/08 17:47:24;;;;;;;7.85;5.32;;;;;;;22.18;66.47;101161.28;4895342;29;20051;-74
2021/07/08 17:49:50;;;;;;;9.18;5.47;;;;;;;22.17;66.23;101157.59;4892269;29;20537;-73
2021/07/08 17:52:15;;;;;;;10.65;5.55;;;;;;;21.89;66.95;101166.00;4911506;29;20040;-73
2021/07/08 17:54:41;;;;;;;9.88;5.78;;;;;;;21.99;66.87;101165.53;4908123;29;20106;-73
2021/07/08 17:57:07;;;;;;;10.77;5.30;;;;;;;22.03;66.88;101163.63;4944598;29;20047;-73
2021/07/08 17:59:33;;;;;;;8.85;5.50;;;;;;;21.99;66.62;101165.53;4879812;29;20040;-74
2021/07/08 18:02:00;;;;;;;9.20;5.20;;;;;;;22.01;66.54;101166.00;4907542;29;20042;-74
2021/07/08 18:04:25;;;;;;;12.05;5.45;;;;;;;22.01;66.39;101160.34;4920408;29;20488;-73
2021/07/08 18:06:51;;;;;;;12.50;5.75;;;;;;;21.93;66.64;101166.97;4909380;29;20118;-73
2021/07/08 18:09:16;;;;;;;10.80;5.65;;;;;;;21.93;66.50;101166.16;4923431;29;20032;-74
2021/07/08 18:11:42;;;;;;;8.98;5.28;;;;;;;21.88;66.57;101166.38;4910527;29;20174;-73
2021/07/08 18:14:08;;;;;;;9.27;5.38;;;;;;;21.68;67.34;101159.69;4926907;29;20051;-72
2021/07/08 18:16:33;;;;;;;9.85;5.90;;;;;;;21.57;67.70;101177.09;4918118;29;20086;-72
2021/07/08 18:18:59;;;;;;;10.40;4.90;;;;;;;21.36;67.27;101165.84;4913952;29;20044;-70
2021/07/08 18:21:24;;;;;;;15.55;5.22;;;;;;;21.35;67.38;101174.69;4908034;29;20039;-70
2021/07/08 18:23:50;;;;;;;8.40;5.03;;;;;;;21.20;67.35;101179.88;4926861;29;20060;-71
2021/07/08 18:26:15;;;;;;;8.90;4.22;;;;;;;21.22;67.07;101178.69;4927591;29;20047;-70
2021/07/08 18:28:41;;;;;;;9.30;4.88;;;;;;;21.19;67.44;101186.66;4914486;29;20050;-70
2021/07/08 18:31:07;;;;;;;9.43;4.68;;;;;;;21.08;67.19;101179.00;4949861;29;20044;-71
2021/07/08 18:33:35;;;;;;;7.00;4.47;;;;;;;21.00;67.43;101188.38;4905756;29;20054;-71
2021/07/08 18:36:02;;;;;;;8.23;4.65;;;;;;;20.89;67.52;101190.81;4920154;29;20063;-71
2021/07/08 18:38:30;;;;;;;6.30;3.97;;;;;;;20.92;67.15;101185.31;4905944;29;20099;-70
2021/07/08 18:40:56;;;;;;;9.30;3.95;;;;;;;20.92;67.47;101190.13;4923230;29;20036;-70
2021/07/08 18:43:23;;;;;;;7.35;4.10;;;;;;;20.87;67.48;101190.38;4935110;29;20059;-70
2021/07/08 18:45:50;;;;;;;7.90;4.30;;;;;;;20.88;67.60;101195.66;4898687;29;20428;-71
2021/07/08 18:48:17;;;;;;;9.10;3.92;;;;;;;20.86;67.57;101191.53;4925091;29;20040;-70
2021/07/08 18:50:43;;;;;;;10.05;4.00;;;;;;;20.84;67.71;101200.34;4914722;29;20075;-70
2021/07/08 18:53:08;;;;;;;5.72;4.30;;;;;;;20.85;67.51;101198.34;4947968;29;20039;-70
2021/07/08 18:55:34;;;;;;;7.38;3.83;;;;;;;20.76;67.21;101192.78;4929331;29;20044;-70
2021/07/08 18:57:59;;;;;;;6.95;3.92;;;;;;;20.67;67.43;101197.69;4895920;29;20400;-70
2021/07/08 19:00:25;;;;;;;7.25;4.05;;;;;;;20.57;67.92;101192.47;4914652;29;20040;-70
2021/07/08 19:02:51;;;;;;;6.45;3.90;;;;;;;20.50;68.12;101196.66;4906558;29;20040;-71
2021/07/08 19:05:17;;;;;;;7.38;3.67;;;;;;;20.46;68.17;101195.69;4912818;29;20428;-71
2021/07/08 19:07:42;;;;;;;7.72;3.58;;;;;;;20.47;68.30;101202.97;4903031;29;20051;-70
2021/07/08 19:10:08;;;;;;;6.57;3.83;;;;;;;20.38;68.34;101201.38;4927989;29;20051;-70
2021/07/08 19:12:34;;;;;;;7.03;3.65;;;;;;;20.36;68.60;101207.38;4894329;29;20671;-71
2021/07/08 19:15:00;;;;;;;7.15;3.80;;;;;;;20.28;68.80;101200.66;4912715;29;20039;-70